createdAt,value
2022-08-30T00:01:27.987Z,6.40
2022-08-30T00:03:56.603Z,6.43
2022-08-30T00:06:25.389Z,5.68
2022-08-30T00:08:53.055Z,5.82
2022-08-30T00:11:27.913Z,6.28
2022-08-30T00:13:58.003Z,5.93
2022-08-30T00:16:26.411Z,6.10
2022-08-30T00:18:54.334Z,6.35
2022-08-30T00:21:21.861Z,6.28
2022-08-30T00:23:48.703Z,6.50
2022-08-30T00:26:15.629Z,6.30
2022-08-30T00:28:42.503Z,6.30
2022-08-30T00:31:10.367Z,6.00
2022-08-30T00:33:40.938Z,6.28
2022-08-30T00:36:07.828Z,6.50
2022-08-30T00:38:34.830Z,6.50
2022-08-30T00:41:01.802Z,6.47
2022-08-30T00:43:34.056Z,6.20
2022-08-30T00:46:07.707Z,5.68
2022-08-30T00:48:40.741Z,6.03
2022-08-30T00:51:12.615Z,6.13
2022-08-30T00:53:48.029Z,6.60
2022-08-30T00:56:18.913Z,6.15
2022-08-30T00:58:52.014Z,6.78
2022-08-30T01:01:20.172Z,6.45
2022-08-30T01:03:48.737Z,6.55
2022-08-30T01:06:16.381Z,6.32
2022-08-30T01:08:46.034Z,6.22
2022-08-30T01:11:18.148Z,5.95
2022-08-30T01:13:47.223Z,5.97
2022-08-30T01:16:15.461Z,5.90
2022-08-30T01:18:43.850Z,6.00
2022-08-30T01:21:28.924Z,6.82
2022-08-30T01:24:00.647Z,6.25
2022-08-30T01:26:30.562Z,5.60
2022-08-30T01:29:04.922Z,5.35
2022-08-30T01:31:33.801Z,5.75
2022-08-30T01:34:07.516Z,6.28
2022-08-30T01:36:44.812Z,5.63
2022-08-30T01:39:16.491Z,6.30
2022-08-30T01:41:43.789Z,6.50
2022-08-30T01:44:12.848Z,6.40
2022-08-30T01:46:46.993Z,6.07
2022-08-30T01:49:19.996Z,6.03
2022-08-30T01:52:00.844Z,5.43
2022-08-30T01:54:36.888Z,5.75
2022-08-30T01:57:12.649Z,5.55
2022-08-30T01:59:43.515Z,5.50
2022-08-30T02:02:10.768Z,5.93
2022-08-30T02:04:37.641Z,7.05
2022-08-30T02:07:05.471Z,6.35
2022-08-30T02:09:32.423Z,6.25
2022-08-30T02:11:59.381Z,6.25
2022-08-30T02:14:26.264Z,6.38
2022-08-30T02:16:53.369Z,5.97
2022-08-30T02:19:20.292Z,5.70
2022-08-30T02:21:47.288Z,5.78
2022-08-30T02:24:14.170Z,5.55
2022-08-30T02:26:42.464Z,5.85
2022-08-30T02:29:09.582Z,6.13
2022-08-30T02:31:36.580Z,5.22
2022-08-30T02:34:04.405Z,6.07
2022-08-30T02:36:31.600Z,5.43
2022-08-30T02:38:58.607Z,5.97
2022-08-30T02:41:25.530Z,5.75
2022-08-30T02:43:52.460Z,5.93
2022-08-30T02:46:19.933Z,6.47
2022-08-30T02:48:46.978Z,5.90
2022-08-30T02:51:14.802Z,6.57
2022-08-30T02:53:44.604Z,5.80
2022-08-30T02:56:14.435Z,6.10
2022-08-30T02:58:43.038Z,5.43
2022-08-30T03:01:13.528Z,6.10
2022-08-30T03:03:43.553Z,5.88
2022-08-30T03:06:10.490Z,5.68
2022-08-30T03:08:37.811Z,5.55
2022-08-30T03:11:05.949Z,7.43
2022-08-30T03:13:33.478Z,6.38
2022-08-30T03:16:00.372Z,6.32
2022-08-30T03:18:27.199Z,6.18
2022-08-30T03:20:54.992Z,5.63
2022-08-30T03:23:23.781Z,6.03
2022-08-30T03:25:51.558Z,6.00
2022-08-30T03:28:18.509Z,5.88
2022-08-30T03:30:45.434Z,6.43
2022-08-30T03:33:12.377Z,5.88
2022-08-30T03:35:39.222Z,6.28
2022-08-30T03:38:06.345Z,6.10
2022-08-30T03:40:33.312Z,7.18
2022-08-30T03:43:01.013Z,5.75
2022-08-30T03:45:28.190Z,6.78
2022-08-30T03:47:55.377Z,6.63
2022-08-30T03:50:22.648Z,6.28
2022-08-30T03:52:49.516Z,6.13
2022-08-30T03:55:16.755Z,5.97
2022-08-30T03:57:43.868Z,6.28
2022-08-30T04:00:14.294Z,6.38
2022-08-30T04:02:41.885Z,6.20
2022-08-30T04:05:11.053Z,5.93
2022-08-30T04:07:38.424Z,6.20
2022-08-30T04:10:08.049Z,5.72
2022-08-30T04:12:36.333Z,5.78
2022-08-30T04:15:06.158Z,5.43
2022-08-30T04:17:33.038Z,6.07
2022-08-30T04:19:59.919Z,7.03
2022-08-30T04:22:26.866Z,6.72
2022-08-30T04:24:53.930Z,6.65
2022-08-30T04:27:20.835Z,6.80
2022-08-30T04:29:48.415Z,6.88
2022-08-30T04:32:16.567Z,6.70
2022-08-30T04:34:44.524Z,6.07
2022-08-30T04:37:11.479Z,6.03
2022-08-30T04:39:38.710Z,6.60
2022-08-30T04:42:05.729Z,6.53
2022-08-30T04:44:33.091Z,5.55
2022-08-30T04:47:00.929Z,6.13
2022-08-30T04:49:28.030Z,6.40
2022-08-30T04:51:55.762Z,6.97
2022-08-30T04:54:22.668Z,6.55
2022-08-30T04:56:49.523Z,6.45
2022-08-30T04:59:16.811Z,6.03
2022-08-30T05:01:45.338Z,6.03
2022-08-30T05:04:14.953Z,6.60
2022-08-30T05:06:42.523Z,6.32
2022-08-30T05:09:09.689Z,6.80
2022-08-30T05:11:38.130Z,7.18
2022-08-30T05:14:06.015Z,6.70
2022-08-30T05:16:32.989Z,6.68
2022-08-30T05:19:00.209Z,6.60
2022-08-30T05:21:29.110Z,6.80
2022-08-30T05:24:02.575Z,6.18
2022-08-30T05:26:33.890Z,6.30
2022-08-30T05:29:01.609Z,6.10
2022-08-30T05:31:32.923Z,6.18
2022-08-30T05:34:00.222Z,5.85
2022-08-30T05:36:31.086Z,7.88
2022-08-30T05:38:58.877Z,6.38
2022-08-30T05:41:27.302Z,7.05
2022-08-30T05:44:00.401Z,6.15
2022-08-30T05:49:07.518Z,6.28
2022-08-30T05:51:41.124Z,6.00
2022-08-30T05:54:13.477Z,6.28
2022-08-30T05:56:42.527Z,6.15
2022-08-30T05:59:09.644Z,6.10
2022-08-30T06:01:41.144Z,6.20
2022-08-30T06:04:12.198Z,6.30
2022-08-30T06:06:42.335Z,5.93
2022-08-30T06:09:12.178Z,6.20
2022-08-30T06:11:39.211Z,5.10
2022-08-30T06:14:06.583Z,5.63
2022-08-30T06:16:35.781Z,5.50
2022-08-30T06:19:02.869Z,6.05
2022-08-30T06:21:36.993Z,5.93
2022-08-30T06:24:07.001Z,6.20
2022-08-30T06:26:43.502Z,6.43
2022-08-30T06:29:14.384Z,5.93
2022-08-30T06:31:41.411Z,5.53
2022-08-30T06:34:08.894Z,6.30
2022-08-30T06:36:36.406Z,5.28
2022-08-30T06:39:04.447Z,6.30
2022-08-30T06:41:37.703Z,4.85
2022-08-30T06:44:11.487Z,5.93
2022-08-30T06:46:39.204Z,5.75
2022-08-30T06:49:07.640Z,5.07
2022-08-30T06:51:39.795Z,5.45
2022-08-30T06:54:10.825Z,5.53
2022-08-30T06:56:55.189Z,5.55
2022-08-30T06:59:25.479Z,5.43
2022-08-30T07:01:54.968Z,5.28
2022-08-30T07:04:21.862Z,4.88
2022-08-30T07:06:48.757Z,5.40
2022-08-30T07:09:15.728Z,5.28
2022-08-30T07:11:42.709Z,5.18
2022-08-30T07:14:09.591Z,4.90
2022-08-30T07:16:36.896Z,4.97
2022-08-30T07:19:06.117Z,5.22
2022-08-30T07:21:43.343Z,4.88
2022-08-30T07:24:12.782Z,4.47
2022-08-30T07:26:47.275Z,4.90
2022-08-30T07:29:14.563Z,4.65
2022-08-30T07:31:42.294Z,5.00
2022-08-30T07:34:10.114Z,5.50
2022-08-30T07:36:40.270Z,5.03
2022-08-30T07:39:08.288Z,4.40
2022-08-30T07:41:38.760Z,4.38
2022-08-30T07:44:08.496Z,5.07
2022-08-30T07:46:37.515Z,4.85
2022-08-30T07:49:10.985Z,4.13
2022-08-30T07:51:41.244Z,4.83
2022-08-30T07:54:08.816Z,4.80
2022-08-30T07:56:36.033Z,4.75
2022-08-30T07:59:03.443Z,4.07
2022-08-30T08:01:30.633Z,4.43
2022-08-30T08:03:58.699Z,3.75
2022-08-30T08:06:25.772Z,4.13
2022-08-30T08:08:53.689Z,4.07
2022-08-30T08:11:29.324Z,4.22
2022-08-30T08:13:58.855Z,4.38
2022-08-30T08:16:29.037Z,3.95
2022-08-30T08:18:56.459Z,4.80
2022-08-30T08:21:25.644Z,4.55
2022-08-30T08:23:53.059Z,4.57
2022-08-30T08:26:21.239Z,4.38
2022-08-30T08:28:48.244Z,4.22
2022-08-30T08:31:31.403Z,4.28
2022-08-30T08:34:04.176Z,3.90
2022-08-30T08:36:33.217Z,3.95
2022-08-30T08:39:00.854Z,4.57
2022-08-30T08:42:09.314Z,4.00
2022-08-30T08:44:42.020Z,3.67
2022-08-30T08:47:21.965Z,4.15
2022-08-30T08:49:57.271Z,4.25
2022-08-30T08:53:01.531Z,4.15
2022-08-30T08:55:29.848Z,3.78
2022-08-30T08:57:57.929Z,4.03
2022-08-30T09:00:25.501Z,4.18
2022-08-30T09:03:04.358Z,3.70
2022-08-30T09:05:41.203Z,3.95
2022-08-30T09:08:14.843Z,3.50
2022-08-30T09:10:57.325Z,3.58
2022-08-30T09:13:25.809Z,3.30
2022-08-30T09:15:59.362Z,3.97
2022-08-30T09:18:54.439Z,3.47
2022-08-30T09:21:27.631Z,3.70
2022-08-30T09:24:04.838Z,3.78
2022-08-30T09:26:37.862Z,3.80
2022-08-30T09:29:12.565Z,3.80
2022-08-30T09:32:05.646Z,3.17
2022-08-30T09:34:44.202Z,3.67
2022-08-30T09:37:34.037Z,3.70
2022-08-30T09:40:02.472Z,3.65
2022-08-30T09:42:30.972Z,3.88
2022-08-30T09:45:10.429Z,2.92
2022-08-30T09:47:42.747Z,3.60
2022-08-30T09:50:17.402Z,3.75
2022-08-30T09:53:09.854Z,3.85
2022-08-30T09:56:06.179Z,3.40
2022-08-30T09:58:49.500Z,3.15
2022-08-30T10:01:32.586Z,3.55
2022-08-30T10:04:56.752Z,3.80
2022-08-30T10:08:04.935Z,3.63
2022-08-30T10:10:58.481Z,3.53
2022-08-30T10:14:05.571Z,3.10
2022-08-30T10:17:09.811Z,3.33
2022-08-30T10:20:04.149Z,3.05
2022-08-30T10:22:46.620Z,2.83
2022-08-30T10:25:35.572Z,2.55
2022-08-30T10:28:11.544Z,2.70
2022-08-30T10:30:46.636Z,2.50
2022-08-30T10:33:47.133Z,2.95
2022-08-30T10:36:16.305Z,3.15
2022-08-30T10:38:52.246Z,2.88
2022-08-30T10:41:33.041Z,2.40
2022-08-30T10:44:29.924Z,3.40
2022-08-30T10:47:06.391Z,2.33
2022-08-30T10:49:40.438Z,2.30
2022-08-30T10:55:14.111Z,2.50
2022-08-30T10:57:43.103Z,2.00
2022-08-30T11:00:16.864Z,2.10
2022-08-30T11:03:18.182Z,2.10
2022-08-30T11:06:01.225Z,2.40
2022-08-30T11:09:10.318Z,2.10
2022-08-30T11:12:20.990Z,2.22
2022-08-30T11:14:48.947Z,2.10
2022-08-30T11:17:40.744Z,3.42
2022-08-30T11:20:39.075Z,2.13
2022-08-30T11:23:27.099Z,2.20
2022-08-30T11:26:12.176Z,2.70
2022-08-30T11:28:47.501Z,2.20
2022-08-30T11:31:20.339Z,3.13
2022-08-30T11:33:52.215Z,3.20
2022-08-30T11:36:37.466Z,2.25
2022-08-30T11:39:44.094Z,2.05
2022-08-30T11:42:46.284Z,2.00
2022-08-30T11:45:25.233Z,2.13
2022-08-30T11:48:10.597Z,2.20
2022-08-30T11:53:47.689Z,2.10
2022-08-30T11:59:47.368Z,2.17
2022-08-30T12:02:47.162Z,2.03
2022-08-30T12:05:59.697Z,2.10
2022-08-30T12:08:35.189Z,2.28
2022-08-30T12:11:12.348Z,2.13
2022-08-30T12:13:42.234Z,2.22
2022-08-30T12:16:20.877Z,2.30
2022-08-30T12:19:00.240Z,2.53
2022-08-30T12:21:44.774Z,2.80
2022-08-30T12:24:27.406Z,3.30
2022-08-30T12:26:55.171Z,3.08
2022-08-30T12:29:30.345Z,3.58
2022-08-30T12:32:08.237Z,4.65
2022-08-30T12:34:50.742Z,3.47
2022-08-30T12:37:27.863Z,3.63
2022-08-30T12:40:12.369Z,3.60
2022-08-30T12:42:49.912Z,3.35
2022-08-30T12:45:23.091Z,3.20
2022-08-30T12:47:58.514Z,3.08
2022-08-30T12:50:54.545Z,3.08
2022-08-30T12:53:39.297Z,3.50
2022-08-30T12:56:14.139Z,3.20
2022-08-30T12:58:52.972Z,2.92
2022-08-30T13:01:34.512Z,3.03
2022-08-30T13:04:21.482Z,3.10
2022-08-30T13:07:01.052Z,3.88
2022-08-30T13:09:34.844Z,2.95
2022-08-30T13:12:23.336Z,2.90
2022-08-30T13:14:52.407Z,2.80
2022-08-30T13:17:19.342Z,2.72
2022-08-30T13:20:05.748Z,2.95
2022-08-30T13:22:40.765Z,2.53
2022-08-30T13:25:11.644Z,2.42
2022-08-30T13:27:40.278Z,2.65
2022-08-30T13:30:16.213Z,2.95
2022-08-30T13:32:43.863Z,3.00
2022-08-30T13:35:11.904Z,2.38
2022-08-30T13:37:49.713Z,2.53
2022-08-30T13:40:19.800Z,2.63
2022-08-30T13:42:47.191Z,2.60
2022-08-30T13:48:05.884Z,2.17
2022-08-30T13:50:33.444Z,2.20
2022-08-30T13:53:00.663Z,2.75
2022-08-30T13:55:28.303Z,2.47
2022-08-30T13:57:56.408Z,2.30
2022-08-30T14:00:25.439Z,2.10
2022-08-30T14:02:56.115Z,2.20
2022-08-30T14:05:50.234Z,1.77
2022-08-30T14:11:16.101Z,2.22
2022-08-30T14:16:36.429Z,2.20
2022-08-30T14:19:04.174Z,1.80
2022-08-30T14:21:33.199Z,2.22
2022-08-30T14:24:00.317Z,2.00
2022-08-30T14:26:39.857Z,2.38
2022-08-30T14:29:13.037Z,1.95
2022-08-30T14:31:41.253Z,2.10
2022-08-30T14:34:11.356Z,1.77
2022-08-30T14:36:41.866Z,2.00
2022-08-30T14:39:14.539Z,1.92
2022-08-30T14:41:46.508Z,2.22
2022-08-30T14:44:16.409Z,2.10
2022-08-30T14:46:43.724Z,2.40
2022-08-30T14:49:12.607Z,2.20
2022-08-30T14:51:40.831Z,2.30
2022-08-30T14:54:09.093Z,2.00
2022-08-30T14:56:39.597Z,2.10
2022-08-30T14:59:07.505Z,2.40
2022-08-30T15:01:36.998Z,1.95
2022-08-30T15:04:07.330Z,1.80
2022-08-30T15:06:36.602Z,2.20
2022-08-30T15:09:06.999Z,2.25
2022-08-30T15:11:34.833Z,2.50
2022-08-30T15:14:02.106Z,2.20
2022-08-30T15:16:46.565Z,2.00
2022-08-30T15:19:13.703Z,2.03
2022-08-30T15:21:44.962Z,1.90
2022-08-30T15:24:19.479Z,1.75
2022-08-30T15:26:52.541Z,1.95
2022-08-30T15:29:21.094Z,1.63
2022-08-30T15:31:50.606Z,1.90
2022-08-30T15:34:26.273Z,2.25
2022-08-30T15:37:05.453Z,2.08
2022-08-30T15:39:35.044Z,2.13
2022-08-30T15:42:02.156Z,2.47
2022-08-30T15:44:32.651Z,2.15
2022-08-30T15:47:01.533Z,1.83
2022-08-30T15:49:28.866Z,2.15
2022-08-30T15:52:02.150Z,2.00
2022-08-30T15:54:30.108Z,2.13
2022-08-30T15:57:00.311Z,2.30
2022-08-30T15:59:31.041Z,2.13
2022-08-30T16:01:58.618Z,2.13
2022-08-30T16:04:26.591Z,2.08
2022-08-30T16:06:55.984Z,2.17
2022-08-30T16:09:23.790Z,2.10
2022-08-30T16:12:04.886Z,2.08
2022-08-30T16:14:32.224Z,2.00
2022-08-30T16:16:59.793Z,1.95
2022-08-30T16:19:27.506Z,1.92
2022-08-30T16:21:56.488Z,2.20
2022-08-30T16:24:24.975Z,1.90
2022-08-30T16:26:52.494Z,1.80
2022-08-30T16:29:20.185Z,2.05
2022-08-30T16:31:48.355Z,4.10
2022-08-30T16:34:20.113Z,2.38
2022-08-30T16:36:47.275Z,1.92
2022-08-30T16:39:14.907Z,2.47
2022-08-30T16:41:44.563Z,2.47
2022-08-30T16:44:12.916Z,2.05
2022-08-30T16:46:41.207Z,2.47
2022-08-30T16:49:08.778Z,2.10
2022-08-30T16:51:37.648Z,2.45
2022-08-30T16:54:08.083Z,2.42
2022-08-30T16:56:37.101Z,2.25
2022-08-30T16:59:10.801Z,2.15
2022-08-30T17:01:39.295Z,2.20
2022-08-30T17:04:08.372Z,2.28
2022-08-30T17:06:36.583Z,2.30
2022-08-30T17:09:06.246Z,2.20
2022-08-30T17:11:36.182Z,2.45
2022-08-30T17:14:03.701Z,2.33
2022-08-30T17:16:31.413Z,2.05
2022-08-30T17:19:01.110Z,2.25
2022-08-30T17:21:29.661Z,2.17
2022-08-30T17:24:01.743Z,2.50
2022-08-30T17:26:36.504Z,2.50
2022-08-30T17:29:05.761Z,2.35
2022-08-30T17:31:35.716Z,2.50
2022-08-30T17:34:05.846Z,2.47
2022-08-30T17:36:36.480Z,2.03
2022-08-30T17:39:11.176Z,2.00
2022-08-30T17:41:50.152Z,2.30
2022-08-30T17:44:19.988Z,2.15
2022-08-30T17:46:47.268Z,1.83
2022-08-30T17:49:15.107Z,2.72
2022-08-30T17:51:44.314Z,2.25
2022-08-30T17:54:12.908Z,2.42
2022-08-30T17:56:41.373Z,2.58
2022-08-30T17:59:10.807Z,2.22
2022-08-30T18:01:39.537Z,2.35
2022-08-30T18:04:06.833Z,2.40
2022-08-30T18:06:35.218Z,2.20
2022-08-30T18:09:04.889Z,2.83
2022-08-30T18:11:41.972Z,2.75
2022-08-30T18:14:11.428Z,3.08
2022-08-30T18:16:47.439Z,2.35
2022-08-30T18:19:20.226Z,2.58
2022-08-30T18:21:47.250Z,2.45
2022-08-30T18:24:15.423Z,2.60
2022-08-30T18:26:43.737Z,2.60
2022-08-30T18:29:11.190Z,3.42
2022-08-30T18:31:39.460Z,2.72
2022-08-30T18:34:07.045Z,3.03
2022-08-30T18:36:41.369Z,2.42
2022-08-30T18:39:09.287Z,3.28
2022-08-30T18:41:43.190Z,2.95
2022-08-30T18:44:26.868Z,2.80
2022-08-30T18:46:56.115Z,2.87
2022-08-30T18:49:25.500Z,2.90
2022-08-30T18:51:53.266Z,2.83
2022-08-30T18:54:20.771Z,2.88
2022-08-30T18:56:48.101Z,2.60
2022-08-30T18:59:16.078Z,2.78
2022-08-30T19:01:43.023Z,2.72
2022-08-30T19:04:22.161Z,2.75
2022-08-30T19:06:57.196Z,2.72
2022-08-30T19:09:24.121Z,3.92
2022-08-30T19:11:54.355Z,2.83
2022-08-30T19:14:21.680Z,2.65
2022-08-30T19:16:48.626Z,3.00
2022-08-30T19:19:16.002Z,2.65
2022-08-30T19:21:43.189Z,3.10
2022-08-30T19:24:11.783Z,2.85
2022-08-30T19:26:39.284Z,3.42
2022-08-30T19:29:06.777Z,3.05
2022-08-30T19:31:34.949Z,3.30
2022-08-30T19:34:02.507Z,3.22
2022-08-30T19:36:30.583Z,3.92
2022-08-30T19:38:57.517Z,3.45
2022-08-30T19:41:25.241Z,4.03
2022-08-30T19:43:52.232Z,3.83
2022-08-30T19:46:19.116Z,3.95
2022-08-30T19:48:46.069Z,3.70
2022-08-30T19:51:15.603Z,4.13
2022-08-30T19:53:43.980Z,4.20
2022-08-30T19:56:11.212Z,4.28
2022-08-30T19:58:38.277Z,4.15
2022-08-30T20:01:25.645Z,3.83
2022-08-30T20:03:52.958Z,4.00
2022-08-30T20:06:23.774Z,3.90
2022-08-30T20:08:50.682Z,3.85
2022-08-30T20:11:23.593Z,4.15
2022-08-30T20:13:50.477Z,4.03
2022-08-30T20:16:18.259Z,4.22
2022-08-30T20:18:45.465Z,3.80
2022-08-30T20:21:14.391Z,4.03
2022-08-30T20:23:43.391Z,4.15
2022-08-30T20:26:11.869Z,4.43
2022-08-30T20:28:40.464Z,4.30
2022-08-30T20:31:08.958Z,4.28
2022-08-30T20:33:38.398Z,4.10
2022-08-30T20:36:09.819Z,4.55
2022-08-30T20:38:37.786Z,4.03
2022-08-30T20:41:11.553Z,4.28
2022-08-30T20:43:39.492Z,4.40
2022-08-30T20:46:11.759Z,3.63
2022-08-30T20:48:40.095Z,4.25
2022-08-30T20:51:15.391Z,4.10
2022-08-30T20:53:43.669Z,4.18
2022-08-30T20:56:21.665Z,3.70
2022-08-30T20:58:50.307Z,3.45
2022-08-30T21:01:18.320Z,3.83
2022-08-30T21:03:47.590Z,3.80
2022-08-30T21:06:16.303Z,4.38
2022-08-30T21:08:43.493Z,3.95
2022-08-30T21:11:10.422Z,4.10
2022-08-30T21:13:38.339Z,3.80
2022-08-30T21:16:06.765Z,4.13
2022-08-30T21:18:36.445Z,3.75
2022-08-30T21:21:21.061Z,4.10
2022-08-30T21:23:49.870Z,3.97
2022-08-30T21:26:19.111Z,4.10
2022-08-30T21:28:52.595Z,4.43
2022-08-30T21:31:24.076Z,4.68
2022-08-30T21:33:54.041Z,4.10
2022-08-30T21:36:41.718Z,4.32
2022-08-30T21:39:09.426Z,3.90
2022-08-30T21:41:37.553Z,3.78
2022-08-30T21:44:13.176Z,4.03
2022-08-30T21:46:41.690Z,3.45
2022-08-30T21:49:11.273Z,4.00
2022-08-30T21:51:43.487Z,4.13
2022-08-30T21:54:13.498Z,3.88
2022-08-30T21:56:44.758Z,3.83
2022-08-30T21:59:12.628Z,3.80
2022-08-30T22:01:43.164Z,4.43
2022-08-30T22:04:12.282Z,4.15
2022-08-30T22:06:44.135Z,3.80
2022-08-30T22:09:14.417Z,3.90
2022-08-30T22:11:44.442Z,4.20
2022-08-30T22:14:12.172Z,3.33
2022-08-30T22:16:40.495Z,4.05
2022-08-30T22:19:08.460Z,4.10
2022-08-30T22:21:38.484Z,4.07
2022-08-30T22:24:05.733Z,3.97
2022-08-30T22:26:34.565Z,3.90
2022-08-30T22:29:02.595Z,4.07
2022-08-30T22:31:29.620Z,4.13
2022-08-30T22:33:56.682Z,3.95
2022-08-30T22:36:33.130Z,3.88
2022-08-30T22:39:03.009Z,3.65
2022-08-30T22:41:34.054Z,4.32
2022-08-30T22:44:02.186Z,4.10
2022-08-30T22:46:34.345Z,3.75
2022-08-30T22:49:05.184Z,3.40
2022-08-30T22:51:33.556Z,3.88
2022-08-30T22:54:01.483Z,3.88
2022-08-30T22:56:30.848Z,4.90
2022-08-30T22:58:58.385Z,3.70
2022-08-30T23:01:37.069Z,4.28
2022-08-30T23:04:07.729Z,3.78
2022-08-30T23:06:35.334Z,4.00
2022-08-30T23:09:03.548Z,3.92
2022-08-30T23:11:31.858Z,3.60
2022-08-30T23:14:02.038Z,4.10
2022-08-30T23:16:29.177Z,3.95
2022-08-30T23:18:56.278Z,4.50
2022-08-30T23:21:27.875Z,3.95
2022-08-30T23:24:15.701Z,4.57
2022-08-30T23:27:04.045Z,6.00
2022-08-30T23:29:50.045Z,3.65
2022-08-30T23:32:36.169Z,4.22
2022-08-30T23:35:29.170Z,3.90
2022-08-30T23:38:18.029Z,4.40
2022-08-30T23:41:04.135Z,4.53
2022-08-30T23:43:49.730Z,4.88
2022-08-30T23:46:35.764Z,5.40
2022-08-30T23:49:22.243Z,5.32
2022-08-30T23:52:08.015Z,5.53
2022-08-30T23:54:55.751Z,5.30
2022-08-30T23:57:45.430Z,5.60
